Time;durP1;ratioP1;P1;durP2;ratioP2;P2;SDS_P1;SDS_P2;PMS_P1;PMS_P2;Temp;Humidity;BMP_temperature;BMP_pressure;BME280_temperature;BME280_humidity;BME280_pressure;Samples;Min_cycle;Max_cycle;Signal;HPM_P1;HPM_P2
2023/05/13 00:00:11;;;;;;;3.67;3.47;;;14.80;54.40;;;;;;20727;6840;117420;-72
2023/05/13 00:02:37;;;;;;;3.83;3.53;;;14.50;54.80;;;;;;20729;6839;119607;-72
2023/05/13 00:05:03;;;;;;;4.03;3.73;;;14.20;55.50;;;;;;20490;6840;355003;-73
2023/05/13 00:07:28;;;;;;;4.18;3.87;;;14.30;55.40;;;;;;20516;6840;307462;-72
2023/05/13 00:09:54;;;;;;;3.63;3.30;;;14.50;55.00;;;;;;20734;6840;117996;-72
2023/05/13 00:12:20;;;;;;;3.83;3.63;;;14.50;55.00;;;;;;20731;6840;117337;-73
2023/05/13 00:14:46;;;;;;;3.93;3.63;;;14.30;55.60;;;;;;20721;6840;119915;-73
2023/05/13 00:17:11;;;;;;;3.17;3.08;;;14.10;56.10;;;;;;20740;6840;117715;-73
2023/05/13 00:19:37;;;;;;;3.60;3.50;;;13.90;56.40;;;;;;20740;6840;119494;-75
2023/05/13 00:22:02;;;;;;;4.40;4.10;;;13.80;56.70;;;;;;20524;6840;308357;-73
2023/05/13 00:24:28;;;;;;;3.57;3.47;;;14.10;56.40;;;;;;20731;6840;117159;-73
2023/05/13 00:26:54;;;;;;;4.05;3.85;;;14.10;57.00;;;;;;20483;6840;337021;-74
2023/05/13 00:29:19;;;;;;;4.13;3.73;;;14.30;55.70;;;;;;20726;6840;118442;-73
2023/05/13 00:31:45;;;;;;;3.97;3.70;;;14.30;55.80;;;;;;20731;6840;121839;-73
2023/05/13 00:34:10;;;;;;;3.60;3.40;;;14.20;56.20;;;;;;20731;6840;120959;-73
2023/05/13 00:36:36;;;;;;;3.83;3.63;;;14.00;56.60;;;;;;20736;6840;117630;-75
2023/05/13 00:39:02;;;;;;;4.10;3.90;;;13.90;56.80;;;;;;20520;6840;278272;-73
2023/05/13 00:41:27;;;;;;;4.07;3.78;;;14.10;56.20;;;;;;20530;6840;307601;-73
2023/05/13 00:43:52;;;;;;;3.80;3.60;;;14.40;55.40;;;;;;20734;6840;119566;-73
2023/05/13 00:46:18;;;;;;;4.10;3.80;;;14.40;55.40;;;;;;20534;6840;311363;-73
2023/05/13 00:48:44;;;;;;;4.07;3.87;;;14.50;55.00;;;;;;20505;6840;280639;-75
2023/05/13 00:51:10;;;;;;;3.60;3.50;;;14.70;54.40;;;;;;20737;6840;118488;-73
2023/05/13 00:53:36;;;;;;;4.10;3.90;;;14.60;54.70;;;;;;20524;6840;278776;-73
2023/05/13 00:56:01;;;;;;;5.57;4.30;;;14.70;54.50;;;;;;20313;6840;313730;-73
2023/05/13 00:58:27;;;;;;;4.10;3.90;;;14.90;54.40;;;;;;20340;6855;278930;-73
2023/05/13 01:01:15;;;;;;;4.47;4.18;;;15.10;53.90;;;;;;20496;6840;336276;-73
2023/05/13 01:03:47;;;;;;;4.43;3.93;;;15.30;54.30;;;;;;20379;6855;117403;-73
2023/05/13 01:06:13;;;;;;;4.10;3.90;;;15.00;54.10;;;;;;20516;6840;278000;-73
2023/05/13 01:08:52;;;;;;;4.60;4.30;;;15.00;54.10;;;;;;20503;6840;307915;-73
2023/05/13 01:11:27;;;;;;;3.80;3.60;;;15.10;53.80;;;;;;20721;6840;117333;-73
2023/05/13 01:13:52;;;;;;;3.70;3.50;;;14.90;54.10;;;;;;20721;6838;117200;-73
2023/05/13 01:16:38;;;;;;;3.63;3.43;;;14.60;55.00;;;;;;20698;6839;119418;-73
2023/05/13 01:19:20;;;;;;;4.33;4.13;;;14.30;55.60;;;;;;20477;6840;278742;-73
2023/05/13 01:21:53;;;;;;;4.13;3.87;;;14.40;55.70;;;;;;20717;6840;119215;-73
2023/05/13 01:24:19;;;;;;;3.70;3.57;;;14.10;56.30;;;;;;20680;6855;117541;-73
2023/05/13 01:26:44;;;;;;;4.70;4.40;;;14.10;56.30;;;;;;20495;6840;309138;-75
2023/05/13 01:29:11;;;;;;;3.97;3.77;;;14.30;56.30;;;;;;20724;6840;117586;-78
2023/05/13 01:31:37;;;;;;;4.60;4.30;;;14.20;56.20;;;;;;20503;6840;278822;-75
2023/05/13 01:34:03;;;;;;;5.03;4.73;;;14.40;56.30;;;;;;20454;6856;308514;-73
2023/05/13 01:36:28;;;;;;;4.13;3.93;;;14.70;56.00;;;;;;20714;6841;123572;-73
2023/05/13 01:38:54;;;;;;;4.17;3.87;;;14.60;56.10;;;;;;20700;6841;119499;-73
2023/05/13 01:41:20;;;;;;;4.00;3.80;;;14.30;56.50;;;;;;20719;6841;117455;-73
2023/05/13 01:43:47;;;;;;;4.43;4.10;;;14.20;57.30;;;;;;20497;6841;337039;-73
2023/05/13 01:46:13;;;;;;;4.83;4.53;;;14.20;57.30;;;;;;20524;6841;307523;-73
2023/05/13 01:48:39;;;;;;;4.27;4.07;;;14.60;56.70;;;;;;20728;6841;117666;-73
2023/05/13 01:51:04;;;;;;;4.35;4.15;;;14.50;56.70;;;;;;20493;6841;297440;-73
2023/05/13 01:53:30;;;;;;;4.70;4.40;;;14.60;56.60;;;;;;20516;6841;277584;-73
2023/05/13 01:55:55;;;;;;;4.60;4.30;;;14.80;56.10;;;;;;20511;6841;278897;-73
2023/05/13 01:58:21;;;;;;;4.37;4.07;;;15.00;55.70;;;;;;20721;6841;119752;-73
2023/05/13 02:00:47;;;;;;;3.95;3.60;;;14.90;55.90;;;;;;20711;6841;123522;-73
2023/05/13 02:03:12;;;;;;;3.83;3.60;;;14.50;56.40;;;;;;20726;6841;121299;-73
2023/05/13 02:05:38;;;;;;;4.20;4.00;;;14.20;56.90;;;;;;20727;6841;117187;-72
2023/05/13 02:08:03;;;;;;;4.10;3.80;;;14.00;57.50;;;;;;20718;6841;117418;-71
2023/05/13 02:10:29;;;;;;;3.90;3.70;;;13.80;57.90;;;;;;20723;6841;118446;-71
2023/05/13 02:12:54;;;;;;;4.30;4.00;;;13.70;58.30;;;;;;20705;6841;122710;-73
2023/05/13 02:15:20;;;;;;;3.97;3.53;;;13.60;58.50;;;;;;20763;6841;118347;-72
2023/05/13 02:17:46;;;;;;;4.67;4.37;;;13.50;58.70;;;;;;20529;6841;278789;-73
2023/05/13 02:20:11;;;;;;;4.50;4.30;;;13.70;58.50;;;;;;20524;6841;277534;-72
2023/05/13 02:22:37;;;;;;;4.07;3.87;;;14.10;57.80;;;;;;20696;6841;119111;-73
2023/05/13 02:25:02;;;;;;;4.62;4.28;;;14.10;57.60;;;;;;20452;6841;326898;-73
2023/05/13 02:27:28;;;;;;;3.80;3.60;;;14.20;57.30;;;;;;20717;6839;123354;-73
2023/05/13 02:29:54;;;;;;;4.75;4.45;;;14.20;57.30;;;;;;20444;6841;301713;-72
2023/05/13 02:32:19;;;;;;;4.37;4.18;;;14.30;57.60;;;;;;20490;6841;307821;-73
2023/05/13 02:34:47;;;;;;;4.50;4.20;;;14.80;56.40;;;;;;20480;6841;315681;-73
2023/05/13 02:37:12;;;;;;;4.30;3.90;;;14.80;56.10;;;;;;20693;6841;117928;-73
2023/05/13 02:39:39;;;;;;;3.65;3.45;;;14.70;56.20;;;;;;20692;6841;117909;-73
2023/05/13 02:42:05;;;;;;;3.70;3.50;;;14.40;56.80;;;;;;20694;6841;118792;-73
2023/05/13 02:44:31;;;;;;;4.20;4.00;;;14.20;57.20;;;;;;20508;6841;306917;-73
2023/05/13 02:46:56;;;;;;;4.17;3.80;;;14.20;57.00;;;;;;20505;6841;279458;-73
2023/05/13 02:49:22;;;;;;;4.27;4.07;;;14.60;56.60;;;;;;20518;6841;312398;-72
2023/05/13 02:51:47;;;;;;;4.20;3.90;;;14.80;55.60;;;;;;20513;6841;341161;-73
2023/05/13 02:54:13;;;;;;;4.13;3.93;;;15.00;55.00;;;;;;20519;6841;307980;-73
2023/05/13 02:56:38;;;;;;;4.43;4.03;;;15.10;54.70;;;;;;20521;6841;283989;-73
2023/05/13 02:59:05;;;;;;;4.28;3.92;;;15.20;54.20;;;;;;20493;6841;283615;-73
2023/05/13 03:01:31;;;;;;;3.67;3.47;;;15.20;54.20;;;;;;20719;6841;120947;-73
2023/05/13 03:03:57;;;;;;;3.50;3.35;;;14.90;54.70;;;;;;20498;6841;337179;-73
2023/05/13 03:06:22;;;;;;;17.15;15.88;;;14.90;54.80;;;;;;20505;6841;314057;-73
2023/05/13 03:08:48;;;;;;;3.62;3.50;;;15.00;54.50;;;;;;20647;6856;118687;-75
2023/05/13 03:11:15;;;;;;;3.60;3.40;;;14.70;54.70;;;;;;20727;6841;118319;-73
2023/05/13 03:13:41;;;;;;;3.92;3.72;;;14.40;55.50;;;;;;20522;6841;312204;-73
2023/05/13 03:16:08;;;;;;;3.90;3.60;;;14.40;55.30;;;;;;20517;6841;340778;-75
2023/05/13 03:18:33;;;;;;;3.70;3.50;;;14.60;54.90;;;;;;20518;6841;278564;-73
2023/05/13 03:20:59;;;;;;;3.80;3.60;;;14.80;54.60;;;;;;20494;6841;311897;-73
2023/05/13 03:23:24;;;;;;;4.12;3.72;;;14.90;54.00;;;;;;20507;6841;307913;-73
2023/05/13 03:25:50;;;;;;;3.37;3.07;;;15.00;53.90;;;;;;20720;6841;120802;-72
2023/05/13 03:28:15;;;;;;;3.90;3.70;;;14.70;54.20;;;;;;20516;6841;315783;-76
2023/05/13 03:30:42;;;;;;;3.15;3.05;;;14.40;54.60;;;;;;20733;6841;116456;-80
2023/05/13 03:33:08;;;;;;;4.80;4.50;;;14.40;54.50;;;;;;20491;6841;310838;-73
2023/05/13 03:35:34;;;;;;;4.20;3.33;;;14.20;55.00;;;;;;20728;6841;117230;-79
2023/05/13 03:37:59;;;;;;;3.53;3.40;;;14.20;55.00;;;;;;20525;6839;306971;-76
2023/05/13 03:40:25;;;;;;;3.53;3.30;;;14.30;54.80;;;;;;20522;6841;340410;-78
2023/05/13 03:42:52;;;;;;;3.25;3.15;;;14.40;54.30;;;;;;20721;6841;121416;-75
2023/05/13 03:45:17;;;;;;;3.20;3.10;;;14.30;54.60;;;;;;20523;6841;278676;-74
2023/05/13 03:47:44;;;;;;;3.40;3.20;;;14.30;54.70;;;;;;20529;6841;280352;-73
2023/05/13 03:50:10;;;;;;;3.17;3.07;;;14.40;54.40;;;;;;20733;6841;123652;-73
2023/05/13 03:52:36;;;;;;;3.33;3.10;;;14.30;54.00;;;;;;20516;6841;311584;-73
2023/05/13 03:55:02;;;;;;;3.00;2.90;;;14.30;54.50;;;;;;20720;6841;117838;-73
2023/05/13 03:57:27;;;;;;;3.57;2.90;;;14.20;54.80;;;;;;20732;6841;117477;-73
2023/05/13 03:59:53;;;;;;;3.42;3.17;;;13.90;55.50;;;;;;20521;6841;340973;-73
2023/05/13 04:02:20;;;;;;;3.50;3.30;;;14.00;55.60;;;;;;20530;6841;277825;-72
2023/05/13 04:04:45;;;;;;;3.50;3.30;;;14.20;54.90;;;;;;20711;6841;117323;-73
2023/05/13 04:07:11;;;;;;;4.50;4.20;;;14.10;55.00;;;;;;20527;6841;330099;-73
2023/05/13 04:09:36;;;;;;;2.90;2.80;;;14.20;54.60;;;;;;20739;6841;119166;-73
2023/05/13 04:12:02;;;;;;;3.43;3.10;;;14.00;54.80;;;;;;20723;6841;117312;-75
2023/05/13 04:14:28;;;;;;;3.40;3.20;;;13.80;55.50;;;;;;20518;6841;307812;-73
2023/05/13 04:16:53;;;;;;;3.62;3.33;;;13.80;55.30;;;;;;20497;6841;311802;-75
2023/05/13 04:19:19;;;;;;;3.10;2.90;;;14.10;54.80;;;;;;20732;6841;121525;-73
2023/05/13 04:21:45;;;;;;;3.63;3.33;;;14.00;55.00;;;;;;20517;6841;307073;-73
2023/05/13 04:24:11;;;;;;;3.63;3.13;;;14.00;54.80;;;;;;20732;6841;117063;-73
2023/05/13 04:26:37;;;;;;;3.63;2.80;;;13.90;55.00;;;;;;20725;6841;119963;-75
2023/05/13 04:29:02;;;;;;;3.60;3.30;;;13.70;55.60;;;;;;20492;6841;433587;-75
2023/05/13 04:31:28;;;;;;;3.70;3.50;;;13.80;55.30;;;;;;20524;6841;279602;-76
2023/05/13 04:33:53;;;;;;;3.15;3.05;;;14.00;54.60;;;;;;20736;6841;123271;-73
2023/05/13 04:36:19;;;;;;;9.50;8.70;;;13.90;54.70;;;;;;20731;6841;123014;-73
2023/05/13 04:38:44;;;;;;;9.83;9.03;;;13.70;55.50;;;;;;20707;6841;121379;-77
2023/05/13 04:41:10;;;;;;;3.42;3.22;;;13.50;56.20;;;;;;20510;6841;308023;-73
2023/05/13 04:43:36;;;;;;;3.00;2.80;;;13.60;55.60;;;;;;20726;6841;118233;-73
2023/05/13 04:46:01;;;;;;;3.50;3.30;;;13.60;55.80;;;;;;20731;6841;117576;-73
2023/05/13 04:48:27;;;;;;;4.40;2.87;;;13.50;56.20;;;;;;20726;6839;117355;-73
2023/05/13 04:50:52;;;;;;;3.80;3.50;;;13.30;56.50;;;;;;20502;6840;277345;-73
2023/05/13 04:53:19;;;;;;;3.35;3.15;;;13.50;56.00;;;;;;20518;6841;298134;-73
2023/05/13 04:55:47;;;;;;;3.50;3.30;;;13.80;55.40;;;;;;20521;6841;278144;-73
2023/05/13 04:58:13;;;;;;;3.60;3.40;;;14.10;54.70;;;;;;20723;6841;118267;-73
2023/05/13 05:00:39;;;;;;;3.60;3.40;;;14.00;54.90;;;;;;20511;6841;310189;-73
2023/05/13 05:03:04;;;;;;;3.33;3.13;;;14.10;54.70;;;;;;20708;6841;121063;-73
2023/05/13 05:05:30;;;;;;;3.50;3.30;;;14.00;55.00;;;;;;20502;6841;336792;-73
2023/05/13 05:07:55;;;;;;;3.70;3.40;;;14.10;54.50;;;;;;20719;6841;118305;-73
2023/05/13 05:10:21;;;;;;;2.90;2.80;;;13.90;54.70;;;;;;20727;6841;117573;-73
2023/05/13 05:12:46;;;;;;;3.80;3.60;;;13.70;55.80;;;;;;20679;6841;118839;-75
2023/05/13 05:15:14;;;;;;;3.93;3.63;;;13.40;55.60;;;;;;20508;6841;342254;-75
2023/05/13 05:17:39;;;;;;;3.65;3.45;;;13.50;55.10;;;;;;20498;6841;307511;-73
2023/05/13 05:20:04;;;;;;;3.28;3.08;;;13.90;54.60;;;;;;20512;6841;337007;-73
2023/05/13 05:22:31;;;;;;;3.70;3.40;;;14.30;53.60;;;;;;20510;6841;336426;-75
2023/05/13 05:24:56;;;;;;;3.07;2.93;;;14.30;53.60;;;;;;20711;6841;119216;-73
2023/05/13 05:27:25;;;;;;;3.37;3.20;;;14.20;54.10;;;;;;20513;6841;336738;-73
2023/05/13 05:29:50;;;;;;;3.37;3.17;;;14.20;54.10;;;;;;20511;6841;322882;-74
2023/05/13 05:32:16;;;;;;;3.50;3.25;;;14.40;53.70;;;;;;20513;6841;308158;-74
2023/05/13 05:34:43;;;;;;;3.60;3.30;;;14.50;53.10;;;;;;20723;6841;117307;-73
2023/05/13 05:37:08;;;;;;;3.40;3.20;;;14.30;53.40;;;;;;20504;6841;339887;-73
2023/05/13 05:39:34;;;;;;;4.03;3.37;;;14.30;53.70;;;;;;20723;6841;117108;-73
2023/05/13 05:42:00;;;;;;;3.70;3.50;;;14.20;54.10;;;;;;20509;6841;337217;-73
2023/05/13 05:44:26;;;;;;;3.30;3.10;;;14.10;54.00;;;;;;20718;6841;117706;-73
2023/05/13 05:46:54;;;;;;;3.53;3.40;;;14.10;54.10;;;;;;20489;6841;321573;-76
2023/05/13 05:49:20;;;;;;;3.33;3.07;;;14.20;53.60;;;;;;20723;6841;117417;-76
2023/05/13 05:51:45;;;;;;;3.43;3.23;;;14.10;53.90;;;;;;20725;6841;117107;-73
2023/05/13 05:54:12;;;;;;;3.47;3.20;;;13.90;54.50;;;;;;20730;6841;119714;-73
2023/05/13 05:56:38;;;;;;;3.13;2.93;;;13.70;55.00;;;;;;20729;6841;117469;-76
2023/05/13 05:59:03;;;;;;;3.62;3.33;;;13.60;55.50;;;;;;20506;6841;285414;-75
2023/05/13 06:01:35;;;;;;;3.60;3.40;;;14.10;53.80;;;;;;20525;6839;339371;-78
2023/05/13 06:04:00;;;;;;;3.67;3.47;;;14.10;53.80;;;;;;20527;6841;278867;-75
2023/05/13 06:06:25;;;;;;;3.58;3.33;;;14.40;53.30;;;;;;20524;6841;303965;-74
2023/05/13 06:08:51;;;;;;;3.73;3.50;;;14.60;52.60;;;;;;20710;6841;117783;-77
2023/05/13 06:11:17;;;;;;;3.23;3.13;;;14.50;53.10;;;;;;20720;6841;118430;-75
2023/05/13 06:13:42;;;;;;;4.33;3.90;;;14.20;53.80;;;;;;20501;6841;336328;-76
2023/05/13 06:16:08;;;;;;;3.70;3.50;;;14.30;53.60;;;;;;20515;6841;307956;-76
2023/05/13 06:18:34;;;;;;;3.53;3.33;;;14.60;53.20;;;;;;20717;6841;119625;-77
2023/05/13 06:21:03;;;;;;;3.27;3.07;;;14.60;53.20;;;;;;20671;6841;117629;-76
2023/05/13 06:23:30;;;;;;;3.83;3.53;;;14.40;53.50;;;;;;20507;6841;282760;-76
2023/05/13 06:25:58;;;;;;;4.63;3.27;;;14.70;52.50;;;;;;20499;6841;278425;-77
2023/05/13 06:28:23;;;;;;;3.63;3.20;;;14.60;52.90;;;;;;20710;6841;121060;-76
2023/05/13 06:30:50;;;;;;;3.97;3.58;;;14.60;52.90;;;;;;20453;6841;311786;-76
2023/05/13 06:33:15;;;;;;;3.60;3.40;;;14.70;52.80;;;;;;20502;6841;307053;-76
2023/05/13 06:35:41;;;;;;;3.40;3.20;;;15.00;52.40;;;;;;20717;6841;119843;-78
2023/05/13 06:38:06;;;;;;;3.77;3.47;;;14.80;52.60;;;;;;20709;6841;117359;-77
2023/05/13 06:40:32;;;;;;;2.90;2.80;;;14.30;53.30;;;;;;20703;6841;117261;-76
2023/05/13 06:42:59;;;;;;;3.35;3.22;;;14.20;53.20;;;;;;20480;6841;336491;-76
2023/05/13 06:45:25;;;;;;;3.58;3.37;;;14.40;53.00;;;;;;20491;6841;332055;-76
2023/05/13 06:47:52;;;;;;;3.60;3.33;;;14.70;52.50;;;;;;20492;6841;285017;-75
2023/05/13 06:50:19;;;;;;;3.90;3.70;;;14.90;52.00;;;;;;20496;6841;277954;-75
2023/05/13 06:52:45;;;;;;;3.67;3.47;;;15.10;51.70;;;;;;20696;6841;123567;-75
2023/05/13 06:55:11;;;;;;;3.60;3.30;;;14.60;52.60;;;;;;20718;6841;117878;-75
2023/05/13 06:57:38;;;;;;;4.20;3.60;;;14.60;52.50;;;;;;20500;6841;292989;-75
2023/05/13 07:00:02;;;;;;;3.90;3.60;;;14.70;52.20;;;;;;20475;6841;328929;-77
2023/05/13 07:02:28;;;;;;;2.97;2.87;;;14.90;51.80;;;;;;20712;6841;117489;-75
2023/05/13 07:04:54;;;;;;;3.43;3.30;;;14.80;52.30;;;;;;20680;6841;117735;-77
2023/05/13 07:07:19;;;;;;;3.70;3.50;;;14.60;52.80;;;;;;20491;6841;278097;-77
2023/05/13 07:09:45;;;;;;;3.77;3.67;;;14.70;52.30;;;;;;20489;6841;308384;-77
2023/05/13 07:12:10;;;;;;;3.60;3.33;;;14.90;51.70;;;;;;20698;6839;119426;-77
2023/05/13 07:14:37;;;;;;;104.83;50.20;;;14.90;52.10;;;;;;20497;6840;313200;-76
2023/05/13 07:17:04;;;;;;;6.93;6.23;;;15.00;52.10;;;;;;20663;6857;121421;-76
2023/05/13 07:19:30;;;;;;;3.90;3.70;;;14.80;53.30;;;;;;20729;6841;118760;-76
2023/05/13 07:21:56;;;;;;;4.10;3.90;;;14.70;53.00;;;;;;20514;6841;307561;-75
2023/05/13 07:24:22;;;;;;;4.50;4.20;;;14.90;52.00;;;;;;20514;6841;312198;-75
2023/05/13 07:26:47;;;;;;;4.22;3.92;;;15.20;51.50;;;;;;20494;6841;283763;-74
2023/05/13 07:29:13;;;;;;;4.70;4.30;;;15.80;50.60;;;;;;20441;6841;339643;-74
2023/05/13 07:31:39;;;;;;;4.68;4.37;;;15.80;50.50;;;;;;20510;6841;312655;-75
2023/05/13 07:34:05;;;;;;;4.40;4.20;;;16.00;50.00;;;;;;20724;6841;118090;-74
2023/05/13 07:36:32;;;;;;;4.87;4.47;;;15.90;50.70;;;;;;20518;6841;278373;-74
2023/05/13 07:38:58;;;;;;;4.40;4.10;;;15.90;50.10;;;;;;20710;6841;119567;-74
2023/05/13 07:41:24;;;;;;;5.40;5.10;;;15.80;50.80;;;;;;20532;6841;277737;-74
2023/05/13 07:43:50;;;;;;;5.30;4.93;;;15.90;49.90;;;;;;20527;6841;337212;-75
2023/05/13 07:46:16;;;;;;;5.17;4.87;;;16.20;49.30;;;;;;20738;6841;117037;-74
2023/05/13 07:48:41;;;;;;;5.43;5.00;;;16.10;49.90;;;;;;20740;6841;118304;-75
2023/05/13 07:51:07;;;;;;;5.60;5.10;;;15.80;50.80;;;;;;20495;6841;336637;-75
2023/05/13 07:53:34;;;;;;;5.77;5.27;;;15.90;50.00;;;;;;20521;6841;308366;-74
2023/05/13 07:55:59;;;;;;;8.75;7.85;;;16.30;50.40;;;;;;20512;6841;342574;-73
2023/05/13 07:58:24;;;;;;;11.73;10.40;;;16.30;49.80;;;;;;20728;6841;117170;-75
2023/05/13 08:00:52;;;;;;;6.23;5.47;;;16.30;50.20;;;;;;20711;6841;119181;-75
2023/05/13 08:03:18;;;;;;;6.43;6.03;;;16.00;50.60;;;;;;20518;6841;305079;-75
2023/05/13 08:05:44;;;;;;;15.17;11.83;;;16.00;49.70;;;;;;20734;6841;118265;-77
2023/05/13 08:08:09;;;;;;;10.02;9.10;;;16.00;50.40;;;;;;20518;6841;311293;-74
2023/05/13 08:10:35;;;;;;;5.93;5.30;;;16.10;49.50;;;;;;20732;6841;117347;-76
2023/05/13 08:13:01;;;;;;;6.45;5.95;;;16.00;50.00;;;;;;20502;6841;307952;-75
2023/05/13 08:15:26;;;;;;;6.57;5.97;;;16.00;49.70;;;;;;20512;6841;307509;-75
2023/05/13 08:17:52;;;;;;;6.50;6.07;;;16.30;49.50;;;;;;20517;6841;307978;-77
2023/05/13 08:20:18;;;;;;;7.43;6.10;;;16.40;49.70;;;;;;20727;6841;117222;-77
2023/05/13 08:22:43;;;;;;;6.50;5.00;;;16.40;49.70;;;;;;20724;6841;118254;-76
2023/05/13 08:25:12;;;;;;;4.50;4.20;;;16.10;50.20;;;;;;20741;6839;117658;-77
2023/05/13 08:27:37;;;;;;;5.37;4.97;;;15.80;50.60;;;;;;20528;6841;312709;-76
2023/05/13 08:30:04;;;;;;;8.98;8.18;;;15.90;50.10;;;;;;20719;6841;117852;-77
2023/05/13 08:32:31;;;;;;;5.20;4.90;;;15.90;49.90;;;;;;20728;6841;117162;-77
2023/05/13 08:34:56;;;;;;;5.82;5.32;;;15.70;50.30;;;;;;20491;6841;307255;-79
2023/05/13 08:37:22;;;;;;;6.15;5.70;;;15.80;49.60;;;;;;20529;6841;277978;-78
2023/05/13 08:39:47;;;;;;;4.87;4.57;;;16.10;49.10;;;;;;20740;6841;117060;-76
2023/05/13 08:42:17;;;;;;;5.90;4.57;;;15.90;49.40;;;;;;20726;6841;118448;-74
2023/05/13 08:44:38;;;;;;;5.20;4.90;;;15.70;50.10;;;;;;20716;6841;117586;-75
2023/05/13 08:47:07;;;;;;;5.33;4.80;;;15.50;50.70;;;;;;20695;6841;118845;-73
2023/05/13 08:49:33;;;;;;;9.53;8.67;;;15.30;51.10;;;;;;20497;6841;311278;-73
2023/05/13 08:51:58;;;;;;;6.60;5.80;;;15.50;50.80;;;;;;20728;6841;117168;-73
2023/05/13 08:54:24;;;;;;;7.18;5.87;;;15.50;50.80;;;;;;20517;6841;308061;-74
2023/05/13 08:56:50;;;;;;;8.40;7.70;;;15.70;50.00;;;;;;20721;6841;117797;-73
2023/05/13 08:59:15;;;;;;;7.07;6.57;;;15.60;50.40;;;;;;20508;6841;337129;-73
2023/05/13 09:01:40;;;;;;;7.00;6.40;;;15.80;50.20;;;;;;20694;6856;120990;-74
2023/05/13 09:04:06;;;;;;;6.90;6.40;;;15.70;50.40;;;;;;20530;6841;280672;-75
2023/05/13 09:06:32;;;;;;;6.10;5.70;;;15.80;49.90;;;;;;20766;6841;117418;-73
2023/05/13 09:08:58;;;;;;;6.70;6.30;;;15.80;50.60;;;;;;20507;6841;282781;-73
2023/05/13 09:11:24;;;;;;;6.10;5.70;;;15.80;50.00;;;;;;20515;6841;312264;-73
2023/05/13 09:13:56;;;;;;;5.80;5.40;;;16.10;49.50;;;;;;20733;6841;120915;-76
2023/05/13 09:16:21;;;;;;;6.27;5.87;;;16.00;49.80;;;;;;20513;6841;281605;-72
2023/05/13 09:18:47;;;;;;;6.65;6.15;;;16.00;49.70;;;;;;20497;6841;308200;-72
2023/05/13 09:21:15;;;;;;;5.77;5.33;;;16.20;49.60;;;;;;20730;6841;117478;-74
2023/05/13 09:23:40;;;;;;;6.07;5.60;;;16.10;50.00;;;;;;20630;6841;118721;-73
2023/05/13 09:26:07;;;;;;;5.70;5.20;;;15.50;51.40;;;;;;20702;6841;117248;-73
2023/05/13 09:28:33;;;;;;;6.22;5.72;;;15.60;50.80;;;;;;20443;6841;345090;-75
2023/05/13 09:31:03;;;;;;;5.97;5.57;;;15.90;50.00;;;;;;20501;6841;281800;-73
2023/05/13 09:33:31;;;;;;;5.50;5.20;;;15.80;50.20;;;;;;20740;6841;67186;-77
2023/05/13 09:35:55;;;;;;;4.83;4.50;;;15.70;50.10;;;;;;20724;6839;117016;-73
2023/05/13 09:38:20;;;;;;;5.82;5.43;;;15.50;50.70;;;;;;20480;6841;337660;-73
2023/05/13 09:40:59;;;;;;;5.13;4.80;;;15.60;50.60;;;;;;20668;6841;118733;-75
2023/05/13 09:43:25;;;;;;;5.53;5.13;;;15.50;50.90;;;;;;20488;6841;279813;-73
2023/05/13 09:45:50;;;;;;;5.72;5.40;;;15.60;50.70;;;;;;20485;6841;283344;-73
2023/05/13 09:48:16;;;;;;;5.80;5.40;;;15.80;50.40;;;;;;20505;6841;314168;-74
2023/05/13 09:50:47;;;;;;;5.20;4.83;;;16.00;50.40;;;;;;20712;6841;117622;-75
2023/05/13 09:53:12;;;;;;;4.63;4.40;;;15.90;50.60;;;;;;20698;6841;117862;-74
2023/05/13 09:55:39;;;;;;;5.00;4.70;;;15.60;50.90;;;;;;20532;6841;278710;-74
2023/05/13 09:58:06;;;;;;;4.90;4.53;;;15.60;50.60;;;;;;20438;6841;307482;-73
2023/05/13 10:00:31;;;;;;;4.43;4.13;;;15.80;50.10;;;;;;20697;6841;117101;-73
2023/05/13 10:02:58;;;;;;;4.72;4.43;;;15.70;50.50;;;;;;20491;6841;308533;-75
2023/05/13 10:05:24;;;;;;;8.37;6.07;;;15.70;50.00;;;;;;20716;6841;117230;-73
2023/05/13 10:07:49;;;;;;;6.78;6.12;;;15.60;50.40;;;;;;20497;6841;307115;-75
2023/05/13 10:10:15;;;;;;;4.17;3.87;;;15.60;50.40;;;;;;20728;6841;121304;-70
2023/05/13 10:12:40;;;;;;;4.32;4.00;;;15.50;50.80;;;;;;20501;6841;311207;-70
2023/05/13 10:15:06;;;;;;;3.90;3.60;;;15.60;50.20;;;;;;20687;6841;117681;-71
2023/05/13 10:17:33;;;;;;;4.30;4.10;;;15.50;50.50;;;;;;20514;6841;308038;-71
2023/05/13 10:19:59;;;;;;;31.27;28.10;;;15.60;50.20;;;;;;20732;6841;117500;-73
2023/05/13 10:22:29;;;;;;;4.50;4.10;;;15.40;51.20;;;;;;20688;6856;118874;-70
2023/05/13 10:24:57;;;;;;;3.90;3.70;;;15.30;51.10;;;;;;20481;6841;307493;-69
2023/05/13 10:27:30;;;;;;;4.17;3.87;;;15.50;51.10;;;;;;20518;6841;316165;-72
2023/05/13 10:29:55;;;;;;;4.22;3.95;;;15.80;50.40;;;;;;20493;6841;282376;-70
2023/05/13 10:32:25;;;;;;;4.45;4.05;;;16.00;51.20;;;;;;20724;6841;119303;-69
2023/05/13 10:35:01;;;;;;;3.37;3.27;;;15.90;50.50;;;;;;20710;6841;121031;-70
2023/05/13 10:37:41;;;;;;;4.78;4.47;;;15.80;50.90;;;;;;20439;6841;306796;-70
2023/05/13 10:40:30;;;;;;;9.43;8.43;;;15.80;50.90;;;;;;20727;6841;117201;-69
2023/05/13 10:43:24;;;;;;;5.10;4.63;;;15.80;51.20;;;;;;20504;6841;278426;-69
2023/05/13 10:45:48;;;;;;;4.83;4.43;;;15.90;50.30;;;;;;20729;6841;118302;-70
2023/05/13 10:48:13;;;;;;;3.97;3.67;;;15.80;50.90;;;;;;20720;6840;120240;-69
2023/05/13 10:50:39;;;;;;;4.17;3.90;;;15.60;51.50;;;;;;20507;6841;307611;-70
2023/05/13 10:53:11;;;;;;;7.12;6.68;;;15.80;51.50;;;;;;20482;6841;278068;-69
2023/05/13 10:55:33;;;;;;;4.10;3.90;;;16.10;50.50;;;;;;20491;6841;308511;-71
2023/05/13 10:58:02;;;;;;;4.40;4.10;;;16.40;50.10;;;;;;20467;6841;281085;-69
2023/05/13 11:00:31;;;;;;;3.80;3.60;;;16.60;49.50;;;;;;20687;6841;117242;-70
2023/05/13 11:02:57;;;;;;;4.30;4.00;;;16.60;50.00;;;;;;20493;6841;281206;-69
2023/05/13 11:05:23;;;;;;;3.53;3.33;;;16.50;50.10;;;;;;20682;6841;117698;-70
2023/05/13 11:07:55;;;;;;;5.17;4.97;;;16.50;50.00;;;;;;20737;6841;117207;-68
2023/05/13 11:10:24;;;;;;;3.80;3.60;;;16.50;49.90;;;;;;20517;6841;277564;-70
2023/05/13 11:13:15;;;;;;;3.53;3.33;;;16.50;49.90;;;;;;20709;6841;121512;-70
2023/05/13 11:15:44;;;;;;;3.17;3.07;;;16.60;50.40;;;;;;20732;6841;121810;-69
2023/05/13 11:18:09;;;;;;;3.00;2.90;;;16.60;50.60;;;;;;20723;6841;117699;-70
2023/05/13 11:20:34;;;;;;;4.10;3.90;;;16.60;50.80;;;;;;20475;6841;337139;-74
2023/05/13 11:23:00;;;;;;;3.78;3.58;;;16.80;49.10;;;;;;20493;6841;312274;-72
2023/05/13 11:25:25;;;;;;;3.30;3.10;;;17.20;48.10;;;;;;20709;6841;120573;-73
2023/05/13 11:27:51;;;;;;;3.70;3.50;;;17.20;48.20;;;;;;20483;6841;278114;-73
2023/05/13 11:30:20;;;;;;;3.47;3.30;;;17.30;47.90;;;;;;20713;6841;117524;-71
2023/05/13 11:32:45;;;;;;;3.20;3.10;;;17.10;48.10;;;;;;20670;6841;119344;-70
2023/05/13 11:35:11;;;;;;;25.23;22.98;;;16.80;48.80;;;;;;20497;6841;310204;-72
2023/05/13 11:37:36;;;;;;;4.47;4.17;;;16.90;48.50;;;;;;20432;6856;281492;-73
2023/05/13 11:40:02;;;;;;;3.80;3.60;;;17.20;47.80;;;;;;20502;6841;308088;-73
2023/05/13 11:42:28;;;;;;;3.80;3.50;;;17.40;47.10;;;;;;20513;6841;300023;-72
2023/05/13 11:44:53;;;;;;;3.17;3.07;;;17.50;47.40;;;;;;20704;6841;119557;-74
2023/05/13 11:47:28;;;;;;;3.40;3.30;;;17.30;47.90;;;;;;20497;6841;308408;-73
2023/05/13 11:49:54;;;;;;;3.57;3.30;;;17.20;47.10;;;;;;20714;6841;117642;-70
2023/05/13 11:52:19;;;;;;;3.20;3.10;;;17.00;47.70;;;;;;20677;6841;117324;-70
2023/05/13 11:54:53;;;;;;;3.63;3.43;;;16.70;48.60;;;;;;20490;6841;308091;-75
2023/05/13 11:57:21;;;;;;;3.70;3.40;;;16.70;48.60;;;;;;20354;6841;292019;-72
2023/05/13 12:00:00;;;;;;;3.20;3.00;;;17.00;48.40;;;;;;20515;6839;278687;-74
2023/05/13 12:02:36;;;;;;;3.47;3.30;;;17.30;47.70;;;;;;20517;6841;310809;-72
2023/05/13 12:05:08;;;;;;;3.20;3.10;;;17.50;47.20;;;;;;20698;6841;119296;-69
2023/05/13 12:07:33;;;;;;;3.10;3.00;;;17.30;47.80;;;;;;20722;6841;117191;-70
2023/05/13 12:09:59;;;;;;;3.40;3.30;;;17.10;48.40;;;;;;20519;6841;336690;-72
2023/05/13 12:12:25;;;;;;;4.10;3.90;;;17.10;48.30;;;;;;20531;6841;278073;-70
2023/05/13 12:14:50;;;;;;;4.35;4.15;;;17.40;47.80;;;;;;20507;6841;312402;-71
2023/05/13 12:17:15;;;;;;;3.53;3.33;;;17.70;47.40;;;;;;20527;6841;307557;-71
2023/05/13 12:20:05;;;;;;;3.50;3.30;;;17.80;46.30;;;;;;20740;6841;117707;-71
2023/05/13 12:22:30;;;;;;;3.40;3.30;;;17.60;46.80;;;;;;20530;6841;277812;-72
2023/05/13 12:24:59;;;;;;;2.63;2.53;;;17.60;47.00;;;;;;20713;6841;119254;-71
2023/05/13 12:27:21;;;;;;;2.87;2.77;;;17.40;47.50;;;;;;20713;6841;118067;-70
2023/05/13 12:29:46;;;;;;;3.10;3.00;;;17.10;48.20;;;;;;20518;6841;307427;-69
2023/05/13 12:32:13;;;;;;;3.10;3.00;;;17.10;48.40;;;;;;20723;6841;117152;-70